Arnold, KS

1:11 PM CDT on September 21, 2014 (GMT -0500)
Schlegel Farms | Change Station
CLOSE
Current Station
Personal Weather Station
Location: Ness City, KS
Elevation: 2395 ft
Nearby Weather Stations

Elev 2395 ft 38.35 °N, 100.04 °W | Updated 0 second ago

Clear
Clear
75.7 °F
Feels Like 77 °F
N
14.0
Wind Variable Wind from NE
Gusts 15.0 mph

Today
High -- | Low -- °F
--% Chance of Precip.
Yesterday
High -- | Low -- °F
Precip. -- in
7:26 AM 7:38 PM
Waning Crescent, 6% visible
Pressure 30.30 in
Visibility 5.0 miles
Clouds Clear
Heat Index 77 °F
Dew Point 45 °F
Humidity 34%
Rainfall 0.00 in
Snow Depth Not available.
UV 8 out of 12
Pollen 5.60 out of 12
Air Quality Not available.
Flu Activity Not available.
METAR KHYS 211735Z 03009KT 5SM CLR 23/06 A3030 RMK AO1

More Conditions Fewer Conditions

Pressure 30.30 in
Visibility 5.0 miles
Clouds Clear
Heat Index 77 °F
Dew Point 45 °F
Humidity 34%
Rainfall 0.00 in
Snow Depth Not available.
UV 8 out of 12
Pollen 5.60 out of 12
Air Quality Not available.
Flu Activity Not available.
METAR KHYS 211735Z 03009KT 5SM CLR 23/06 A3030 RMK AO1

More Conditions Fewer Conditions

10-Day Weather Forecast

Almanac

Astronomy

Sep. 21, 2014 Rise Set
Actual Time 7:26 AM CDT 7:38 PM CDT
Civil Twilight 7:00 AM CDT 8:05 PM CDT
Nautical Twilight 6:29 AM CDT 8:36 PM CDT
Astronomical Twilight 5:57 AM CDT 9:07 PM CDT
Moon 5:03 AM CDT 6:14 PM CDT
Length of Visible Light 13h 04m
Length of Day
12h 11m
Tomorrow will be 2m 29s shorter.
Waning Crescent, 6% of the Moon is Illuminated
Today
Waning Crescent
Sep 24
New
Oct 1
First Quarter
Oct 8
Full
Oct 15
Last Quarter

Today's Extremes

State Highs State Lows

Community

WunderPhotos

Upload Photos

1,755,213 photos uploaded!

WunderBlogs® & News

Nearby

Snow Depth

Station Depth Elevation
No new snow has been reported.

Earthquake Activity

City Distance Mag. Time & Date
Cherokee, Oklahoma 167 miles 2.8 10:11 PM CDT
2014-09-18
, 165 miles 2.7 2:00 PM CDT
2014-09-17
Minimum magnitude displayed is 2.5.

Coastal Water Temperatures

Place Temperature
No Stations Reporting

Nearby Weather Stations